createdAt,value
2024-04-15T00:00:07.559Z,100.00
2024-04-15T00:02:54.093Z,100.00
2024-04-15T00:05:21.825Z,100.00
2024-04-15T00:07:52.256Z,100.00
2024-04-15T00:10:19.104Z,100.00
2024-04-15T00:12:46.224Z,100.00
2024-04-15T00:15:13.611Z,100.00
2024-04-15T00:17:40.780Z,100.00
2024-04-15T00:20:08.247Z,100.00
2024-04-15T00:22:36.828Z,100.00
2024-04-15T00:25:04.485Z,100.00
2024-04-15T00:27:31.340Z,100.00
2024-04-15T00:29:58.796Z,100.00
2024-04-15T00:32:25.829Z,100.00
2024-04-15T00:34:52.893Z,100.00
2024-04-15T00:37:20.031Z,100.00
2024-04-15T00:39:47.027Z,100.00
2024-04-15T00:42:13.971Z,100.00
2024-04-15T00:44:40.896Z,100.00
2024-04-15T00:47:09.647Z,100.00
2024-04-15T00:49:38.825Z,100.00
2024-04-15T00:52:07.505Z,100.00
2024-04-15T00:54:38.803Z,100.00
2024-04-15T00:57:05.940Z,100.00
2024-04-15T00:59:36.419Z,100.00
2024-04-15T01:02:03.995Z,100.00
2024-04-15T01:04:30.933Z,100.00
2024-04-15T01:06:58.498Z,100.00
2024-04-15T01:09:26.748Z,100.00
2024-04-15T01:11:53.623Z,100.00
2024-04-15T01:14:21.209Z,100.00
2024-04-15T01:16:49.735Z,100.00
2024-04-15T01:19:17.041Z,100.00
2024-04-15T01:21:43.869Z,100.00
2024-04-15T01:24:11.282Z,100.00
2024-04-15T01:26:38.213Z,100.00
2024-04-15T01:29:05.815Z,100.00
2024-04-15T01:31:40.610Z,100.00
2024-04-15T01:34:08.334Z,100.00
2024-04-15T01:36:35.024Z,100.00
2024-04-15T01:39:02.393Z,100.00
2024-04-15T01:41:29.517Z,100.00
2024-04-15T01:43:56.285Z,100.00
2024-04-15T01:46:23.036Z,100.00
2024-04-15T01:48:50.333Z,100.00
2024-04-15T01:51:17.432Z,100.00
2024-04-15T01:53:44.405Z,100.00
2024-04-15T01:56:11.349Z,100.00
2024-04-15T01:58:38.255Z,100.00
2024-04-15T02:01:06.063Z,100.00
2024-04-15T02:03:33.599Z,100.00
2024-04-15T02:06:01.177Z,100.00
2024-04-15T02:08:29.012Z,100.00
2024-04-15T02:10:56.482Z,100.00
2024-04-15T02:13:23.668Z,100.00
2024-04-15T02:15:50.835Z,100.00
2024-04-15T02:18:17.987Z,100.00
2024-04-15T02:20:45.679Z,100.00
2024-04-15T02:23:12.867Z,100.00
2024-04-15T02:25:40.126Z,100.00
2024-04-15T02:28:07.198Z,100.00
2024-04-15T02:30:34.465Z,100.00
2024-04-15T02:33:02.118Z,100.00
2024-04-15T02:35:29.176Z,100.00
2024-04-15T02:37:56.055Z,100.00
2024-04-15T02:40:24.008Z,100.00
2024-04-15T02:42:51.901Z,100.00
2024-04-15T02:45:19.029Z,100.00
2024-04-15T02:47:46.380Z,100.00
2024-04-15T02:50:13.800Z,100.00
2024-04-15T02:52:42.456Z,100.00
2024-04-15T02:55:09.530Z,100.00
2024-04-15T02:57:37.805Z,100.00
2024-04-15T03:00:06.434Z,100.00
2024-04-15T03:02:34.947Z,100.00
2024-04-15T03:05:04.122Z,100.00
2024-04-15T03:07:31.456Z,100.00
2024-04-15T03:09:58.981Z,100.00
2024-04-15T03:12:25.914Z,100.00
2024-04-15T03:14:54.614Z,100.00
2024-04-15T03:17:21.751Z,100.00
2024-04-15T03:19:53.493Z,100.00
2024-04-15T03:22:22.410Z,100.00
2024-04-15T03:24:50.385Z,100.00
2024-04-15T03:27:18.262Z,100.00
2024-04-15T03:29:45.939Z,100.00
2024-04-15T03:32:13.134Z,100.00
2024-04-15T03:34:40.307Z,100.00
2024-04-15T03:37:07.138Z,100.00
2024-04-15T03:39:34.326Z,100.00
2024-04-15T03:42:01.583Z,100.00
2024-04-15T03:44:29.246Z,100.00
2024-04-15T03:46:56.276Z,100.00
2024-04-15T03:49:23.336Z,100.00
2024-04-15T03:51:50.065Z,100.00
2024-04-15T03:54:17.010Z,100.00
2024-04-15T03:56:44.163Z,100.00
2024-04-15T03:59:13.354Z,100.00
2024-04-15T04:01:41.003Z,100.00
2024-04-15T04:04:10.109Z,100.00
2024-04-15T04:06:38.507Z,100.00
2024-04-15T04:09:06.158Z,100.00
2024-04-15T04:11:34.004Z,100.00
2024-04-15T04:14:00.887Z,100.00
2024-04-15T04:16:29.265Z,100.00
2024-04-15T04:18:56.099Z,100.00
2024-04-15T04:21:23.131Z,100.00
2024-04-15T04:23:50.125Z,100.00
2024-04-15T04:26:17.870Z,100.00
2024-04-15T04:28:46.539Z,100.00
2024-04-15T04:31:13.793Z,100.00
2024-04-15T04:33:40.564Z,100.00
2024-04-15T04:36:08.028Z,100.00
2024-04-15T04:38:35.636Z,100.00
2024-04-15T04:41:03.394Z,100.00
2024-04-15T04:43:30.351Z,100.00
2024-04-15T04:45:57.539Z,100.00
2024-04-15T04:48:24.841Z,100.00
2024-04-15T04:50:51.955Z,100.00
2024-04-15T04:53:19.202Z,100.00
2024-04-15T04:55:46.257Z,100.00
2024-04-15T04:58:14.474Z,100.00
2024-04-15T05:00:42.539Z,100.00
2024-04-15T05:03:10.207Z,100.00
2024-04-15T05:05:37.227Z,100.00
2024-04-15T05:08:05.794Z,100.00
2024-04-15T05:10:33.257Z,100.00
2024-04-15T05:13:00.552Z,100.00
2024-04-15T05:15:27.772Z,100.00
2024-04-15T05:17:54.915Z,100.00
2024-04-15T05:20:22.143Z,100.00
2024-04-15T05:22:50.143Z,100.00
2024-04-15T05:25:17.352Z,100.00
2024-04-15T05:27:46.248Z,100.00
2024-04-15T05:30:13.294Z,100.00
2024-04-15T05:32:40.542Z,100.00
2024-04-15T05:35:07.932Z,100.00
2024-04-15T05:37:35.354Z,100.00
2024-04-15T05:40:02.275Z,100.00
2024-04-15T05:42:30.952Z,100.00
2024-04-15T05:44:57.970Z,100.00
2024-04-15T05:47:25.952Z,100.00
2024-04-15T05:49:52.997Z,100.00
2024-04-15T05:52:19.876Z,100.00
2024-04-15T05:54:46.989Z,100.00
2024-04-15T05:57:14.652Z,100.00
2024-04-15T05:59:42.287Z,100.00
2024-04-15T06:02:09.234Z,100.00
2024-04-15T06:04:36.954Z,100.00
2024-04-15T06:07:04.235Z,100.00
2024-04-15T06:09:32.058Z,100.00
2024-04-15T06:11:59.240Z,100.00
2024-04-15T06:14:26.343Z,100.00
2024-04-15T06:16:53.993Z,100.00
2024-04-15T06:19:21.947Z,100.00
2024-04-15T06:21:49.011Z,100.00
2024-04-15T06:24:15.782Z,100.00
2024-04-15T06:26:42.830Z,100.00
2024-04-15T06:29:10.365Z,100.00
2024-04-15T06:31:37.387Z,100.00
2024-04-15T06:34:04.303Z,100.00
2024-04-15T06:36:31.556Z,100.00
2024-04-15T06:38:59.714Z,100.00
2024-04-15T06:41:26.987Z,100.00
2024-04-15T06:43:53.860Z,100.00
2024-04-15T06:46:20.638Z,100.00
2024-04-15T06:48:47.705Z,100.00
2024-04-15T06:51:14.650Z,96.24
2024-04-15T06:53:42.244Z,95.30
2024-04-15T06:56:10.293Z,92.56
2024-04-15T06:58:37.577Z,95.61
2024-04-15T07:01:04.548Z,90.12
2024-04-15T07:03:32.071Z,92.86
2024-04-15T07:05:59.022Z,85.54
2024-04-15T07:08:26.247Z,96.34
2024-04-15T07:10:53.278Z,93.04
2024-04-15T07:13:21.251Z,89.85
2024-04-15T07:15:50.010Z,82.97
2024-04-15T07:18:17.655Z,77.02
2024-04-15T07:20:46.241Z,88.29
2024-04-15T07:23:13.761Z,84.06
2024-04-15T07:25:40.703Z,74.92
2024-04-15T07:28:07.978Z,77.37
2024-04-15T07:30:35.287Z,83.74
2024-04-15T07:33:02.602Z,84.40
2024-04-15T07:35:31.849Z,81.03
2024-04-15T07:37:59.345Z,76.23
2024-04-15T07:40:29.940Z,80.23
2024-04-15T07:43:16.540Z,69.33
2024-04-15T07:45:45.367Z,62.72
2024-04-15T07:48:14.535Z,70.15
2024-04-15T07:50:42.108Z,70.67
2024-04-15T07:53:08.953Z,71.10
2024-04-15T07:55:35.935Z,68.63
2024-04-15T07:58:03.338Z,65.59
2024-04-15T08:00:30.174Z,70.42
2024-04-15T08:02:57.406Z,80.65
2024-04-15T08:05:24.318Z,73.18
2024-04-15T08:07:53.922Z,70.32
2024-04-15T08:10:21.460Z,70.93
2024-04-15T08:12:48.806Z,72.04
2024-04-15T08:15:15.858Z,72.56
2024-04-15T08:17:44.267Z,75.13
2024-04-15T08:20:11.298Z,70.67
2024-04-15T08:22:39.453Z,66.20
2024-04-15T08:25:10.087Z,66.70
2024-04-15T08:27:41.109Z,74.06
2024-04-15T08:30:09.182Z,71.71
2024-04-15T08:32:40.429Z,63.10
2024-04-15T08:35:07.781Z,68.33
2024-04-15T08:37:37.819Z,63.10
2024-04-15T08:40:06.347Z,62.20
2024-04-15T08:42:53.425Z,68.94
2024-04-15T08:45:22.520Z,64.82
2024-04-15T08:47:51.931Z,58.05
2024-04-15T08:50:21.366Z,57.40
2024-04-15T08:52:54.224Z,60.84
2024-04-15T08:55:24.867Z,60.81
2024-04-15T08:57:53.573Z,56.29
2024-04-15T09:00:22.702Z,58.82
2024-04-15T09:02:53.307Z,58.08
2024-04-15T09:05:21.300Z,55.56
2024-04-15T09:07:50.675Z,54.73
2024-04-15T09:10:17.868Z,53.82
2024-04-15T09:12:44.891Z,49.00
2024-04-15T09:15:14.219Z,53.18
2024-04-15T09:17:42.561Z,52.80
2024-04-15T09:20:10.389Z,50.09
2024-04-15T09:22:38.702Z,49.28
2024-04-15T09:25:07.385Z,52.39
2024-04-15T09:27:37.448Z,52.64
2024-04-15T09:30:05.817Z,51.06
2024-04-15T09:32:34.376Z,50.20
2024-04-15T09:35:04.184Z,50.82
2024-04-15T09:37:33.130Z,48.43
2024-04-15T09:40:06.450Z,48.22
2024-04-15T09:42:35.832Z,47.99
2024-04-15T09:45:06.573Z,48.76
2024-04-15T09:47:35.468Z,48.25
2024-04-15T09:50:02.949Z,48.03
2024-04-15T09:52:32.114Z,47.25
2024-04-15T09:55:09.988Z,47.12
2024-04-15T09:57:45.247Z,45.30
2024-04-15T10:00:17.551Z,45.93
2024-04-15T10:02:54.091Z,47.51
2024-04-15T10:05:23.024Z,47.32
2024-04-15T10:07:53.159Z,46.92
2024-04-15T10:10:21.310Z,44.35
2024-04-15T10:12:53.574Z,42.15
2024-04-15T10:15:22.365Z,42.57
2024-04-15T10:17:57.215Z,38.88
2024-04-15T10:20:36.353Z,39.07
2024-04-15T10:23:08.821Z,36.52
2024-04-15T10:25:36.404Z,34.24
2024-04-15T10:28:06.497Z,32.01
2024-04-15T10:30:34.500Z,33.20
2024-04-15T10:33:22.105Z,34.58
2024-04-15T10:35:52.695Z,36.18
2024-04-15T10:38:19.787Z,36.67
2024-04-15T10:40:50.604Z,36.87
2024-04-15T10:43:19.842Z,37.09
2024-04-15T10:45:47.405Z,35.76
2024-04-15T10:48:14.919Z,38.10
2024-04-15T10:50:42.424Z,39.21
2024-04-15T10:53:11.489Z,35.55
2024-04-15T10:55:38.991Z,33.82
2024-04-15T10:58:13.139Z,35.08
2024-04-15T11:00:43.789Z,33.06
2024-04-15T11:03:11.625Z,32.54
2024-04-15T11:05:38.859Z,33.37
2024-04-15T11:08:06.611Z,30.60
2024-04-15T11:10:34.206Z,33.38
2024-04-15T11:13:01.728Z,30.64
2024-04-15T11:15:29.842Z,28.53
2024-04-15T11:17:57.022Z,32.90
2024-04-15T11:20:25.121Z,31.70
2024-04-15T11:22:52.401Z,31.93
2024-04-15T11:25:20.349Z,35.88
2024-04-15T11:27:54.203Z,37.12
2024-04-15T11:30:24.607Z,33.69
2024-04-15T11:32:52.952Z,36.71
2024-04-15T11:35:21.750Z,36.30
2024-04-15T11:37:59.518Z,40.50
2024-04-15T11:40:27.581Z,38.26
2024-04-15T11:42:56.244Z,41.09
2024-04-15T11:45:22.998Z,37.12
2024-04-15T11:47:55.376Z,38.48
2024-04-15T11:50:22.686Z,38.40
2024-04-15T11:52:50.027Z,39.63
2024-04-15T11:55:17.451Z,38.42
2024-04-15T11:57:45.781Z,41.20
2024-04-15T12:00:13.372Z,39.42
2024-04-15T12:02:41.957Z,39.59
2024-04-15T12:05:12.226Z,40.23
2024-04-15T12:07:43.213Z,39.20
2024-04-15T12:10:11.876Z,38.80
2024-04-15T12:12:39.897Z,40.44
2024-04-15T12:15:09.072Z,38.91
2024-04-15T12:17:38.031Z,40.73
2024-04-15T12:20:06.410Z,41.61
2024-04-15T12:22:35.178Z,35.80
2024-04-15T12:25:07.904Z,37.35
2024-04-15T12:27:39.174Z,38.18
2024-04-15T12:30:10.309Z,38.69
2024-04-15T12:32:41.115Z,37.92
2024-04-15T12:35:08.350Z,37.16
2024-04-15T12:37:35.847Z,40.86
2024-04-15T12:40:07.085Z,38.65
2024-04-15T12:42:35.431Z,42.72
2024-04-15T12:45:04.036Z,38.71
2024-04-15T12:47:32.043Z,38.69
2024-04-15T12:49:59.128Z,39.92
2024-04-15T12:52:26.147Z,38.71
2024-04-15T12:54:54.283Z,39.65
2024-04-15T12:57:22.740Z,40.47
2024-04-15T12:59:50.505Z,39.07
2024-04-15T13:02:17.791Z,38.38
2024-04-15T13:04:45.192Z,37.12
2024-04-15T13:07:12.964Z,39.22
2024-04-15T13:09:40.170Z,40.54
2024-04-15T13:12:11.243Z,38.59
2024-04-15T13:14:39.492Z,40.58
2024-04-15T13:17:06.624Z,42.01
2024-04-15T13:19:34.379Z,39.15
2024-04-15T13:22:02.435Z,42.09
2024-04-15T13:24:30.987Z,38.86
2024-04-15T13:26:57.748Z,39.93
2024-04-15T13:29:24.611Z,38.69
2024-04-15T13:32:01.247Z,37.99
2024-04-15T13:34:35.886Z,40.05
2024-04-15T13:37:03.292Z,37.59
2024-04-15T13:39:30.661Z,38.25
2024-04-15T13:41:57.523Z,35.75
2024-04-15T13:44:24.422Z,39.55
2024-04-15T13:46:51.896Z,38.04
2024-04-15T13:49:20.830Z,40.28
2024-04-15T13:51:47.627Z,36.93
2024-04-15T13:54:14.379Z,36.11
2024-04-15T13:56:41.358Z,40.38
2024-04-15T13:59:08.806Z,37.74
2024-04-15T14:01:35.617Z,40.58
2024-04-15T14:04:02.975Z,43.05
2024-04-15T14:06:30.001Z,42.35
2024-04-15T14:08:57.271Z,44.07
2024-04-15T14:11:24.636Z,47.89
2024-04-15T14:13:51.920Z,47.24
2024-04-15T14:16:18.860Z,49.71
2024-04-15T14:18:48.057Z,59.09
2024-04-15T14:21:14.910Z,58.58
2024-04-15T14:23:42.226Z,58.51
2024-04-15T14:26:09.643Z,55.33
2024-04-15T14:28:36.420Z,52.87
2024-04-15T14:31:03.368Z,54.71
2024-04-15T14:33:30.288Z,49.38
2024-04-15T14:35:57.407Z,47.82
2024-04-15T14:38:24.742Z,48.92
2024-04-15T14:40:51.941Z,46.85
2024-04-15T14:43:19.486Z,49.96
2024-04-15T14:45:46.487Z,48.72
2024-04-15T14:48:13.647Z,50.66
2024-04-15T14:50:40.393Z,49.53
2024-04-15T14:53:07.481Z,53.15
2024-04-15T14:55:35.067Z,49.77
2024-04-15T14:58:01.990Z,49.24
2024-04-15T15:00:29.655Z,51.20
2024-04-15T15:02:57.433Z,51.61
2024-04-15T15:05:24.770Z,52.09
2024-04-15T15:07:52.041Z,51.15
2024-04-15T15:10:19.121Z,49.72
2024-04-15T15:12:46.124Z,51.51
2024-04-15T15:15:13.343Z,50.53
2024-04-15T15:17:40.551Z,54.79
2024-04-15T15:20:08.373Z,62.55
2024-04-15T15:22:35.331Z,67.65
2024-04-15T15:25:02.939Z,75.50
2024-04-15T15:27:30.716Z,82.57
2024-04-15T15:29:57.431Z,89.18
2024-04-15T15:32:24.087Z,100.00
2024-04-15T15:34:50.893Z,100.00
2024-04-15T15:37:17.946Z,100.00
2024-04-15T15:39:44.828Z,100.00
2024-04-15T15:42:12.075Z,100.00
2024-04-15T15:44:38.790Z,100.00
2024-04-15T15:47:05.894Z,100.00
2024-04-15T15:49:33.139Z,100.00
2024-04-15T15:52:03.763Z,100.00
2024-04-15T15:54:31.471Z,100.00
2024-04-15T15:56:59.151Z,100.00
2024-04-15T15:59:26.389Z,100.00
2024-04-15T16:01:53.272Z,100.00
2024-04-15T16:04:21.320Z,100.00
2024-04-15T16:06:49.285Z,100.00
2024-04-15T16:09:16.460Z,100.00
2024-04-15T16:11:46.975Z,100.00
2024-04-15T16:14:15.467Z,100.00
2024-04-15T16:16:42.416Z,100.00
2024-04-15T16:19:10.551Z,100.00
2024-04-15T16:21:40.161Z,100.00
2024-04-15T16:24:07.692Z,100.00
2024-04-15T16:26:35.434Z,100.00
2024-04-15T16:29:07.599Z,100.00
2024-04-15T16:31:35.456Z,100.00
2024-04-15T16:34:03.612Z,100.00
2024-04-15T16:36:32.319Z,100.00
2024-04-15T16:38:59.570Z,100.00
2024-04-15T16:41:26.843Z,100.00
2024-04-15T16:43:54.439Z,100.00
2024-04-15T16:46:29.189Z,100.00
2024-04-15T16:48:56.719Z,100.00
2024-04-15T16:51:25.116Z,100.00
2024-04-15T16:53:53.108Z,100.00
2024-04-15T16:56:20.497Z,100.00
2024-04-15T16:58:48.122Z,100.00
2024-04-15T17:01:15.631Z,100.00
2024-04-15T17:03:43.569Z,100.00
2024-04-15T17:06:11.570Z,100.00
2024-04-15T17:08:38.497Z,100.00
2024-04-15T17:11:05.743Z,100.00
2024-04-15T17:13:33.256Z,100.00
2024-04-15T17:16:01.020Z,100.00
2024-04-15T17:18:29.902Z,100.00
2024-04-15T17:20:57.353Z,100.00
2024-04-15T17:23:36.731Z,100.00
2024-04-15T17:26:07.035Z,100.00
2024-04-15T17:28:41.189Z,100.00
2024-04-15T17:31:09.942Z,100.00
2024-04-15T17:33:40.113Z,100.00
2024-04-15T17:36:08.568Z,100.00
2024-04-15T17:38:35.775Z,100.00
2024-04-15T17:41:03.582Z,100.00
2024-04-15T17:43:30.775Z,100.00
2024-04-15T17:45:59.911Z,100.00
2024-04-15T17:48:27.646Z,100.00
2024-04-15T17:50:55.720Z,100.00
2024-04-15T17:53:24.280Z,100.00
2024-04-15T17:55:51.924Z,100.00
2024-04-15T17:58:18.705Z,100.00
2024-04-15T18:00:46.584Z,100.00
2024-04-15T18:03:15.315Z,100.00
2024-04-15T18:05:43.839Z,100.00
2024-04-15T18:08:10.625Z,100.00
2024-04-15T18:10:37.595Z,100.00
2024-04-15T18:13:04.616Z,100.00
2024-04-15T18:15:31.359Z,100.00
2024-04-15T18:18:01.336Z,100.00
2024-04-15T18:20:28.454Z,100.00
2024-04-15T18:22:55.558Z,100.00
2024-04-15T18:25:22.447Z,100.00
2024-04-15T18:27:54.883Z,100.00
2024-04-15T18:30:21.798Z,100.00
2024-04-15T18:32:49.445Z,100.00
2024-04-15T18:35:16.418Z,100.00
2024-04-15T18:37:44.752Z,100.00
2024-04-15T18:40:11.993Z,100.00
2024-04-15T18:42:39.619Z,100.00
2024-04-15T18:45:08.245Z,100.00
2024-04-15T18:47:35.728Z,100.00
2024-04-15T18:50:02.577Z,100.00
2024-04-15T18:52:29.674Z,100.00
2024-04-15T18:54:57.419Z,100.00
2024-04-15T18:57:24.507Z,100.00
2024-04-15T18:59:51.846Z,100.00
2024-04-15T19:02:18.703Z,100.00
2024-04-15T19:04:45.772Z,100.00
2024-04-15T19:07:12.811Z,100.00
2024-04-15T19:09:40.236Z,100.00
2024-04-15T19:12:07.784Z,100.00
2024-04-15T19:14:46.000Z,100.00
2024-04-15T19:17:21.985Z,100.00
2024-04-15T19:19:50.247Z,100.00
2024-04-15T19:22:17.647Z,100.00
2024-04-15T19:24:44.527Z,100.00
2024-04-15T19:27:11.431Z,100.00
2024-04-15T19:29:38.229Z,100.00
2024-04-15T19:32:05.832Z,100.00
2024-04-15T19:34:32.757Z,100.00
2024-04-15T19:36:59.820Z,100.00
2024-04-15T19:39:26.968Z,100.00
2024-04-15T19:41:54.616Z,100.00
2024-04-15T19:44:21.406Z,100.00
2024-04-15T19:46:48.337Z,100.00
2024-04-15T19:49:15.308Z,100.00
2024-04-15T19:51:42.084Z,100.00
2024-04-15T19:54:08.781Z,100.00
2024-04-15T19:56:36.565Z,100.00
2024-04-15T19:59:04.201Z,100.00
2024-04-15T20:01:30.948Z,100.00
2024-04-15T20:03:58.108Z,100.00
2024-04-15T20:06:24.980Z,100.00
2024-04-15T20:08:51.946Z,100.00
2024-04-15T20:11:18.873Z,100.00
2024-04-15T20:13:45.676Z,100.00
2024-04-15T20:16:12.528Z,100.00
2024-04-15T20:19:02.518Z,100.00
2024-04-15T20:21:32.015Z,100.00
2024-04-15T20:23:59.590Z,100.00
2024-04-15T20:26:26.940Z,100.00
2024-04-15T20:28:54.097Z,100.00
2024-04-15T20:31:21.080Z,100.00
2024-04-15T20:33:47.892Z,100.00
2024-04-15T20:36:14.900Z,100.00
2024-04-15T20:38:44.661Z,100.00
2024-04-15T20:41:11.736Z,100.00
2024-04-15T20:43:39.267Z,100.00
2024-04-15T20:46:10.483Z,100.00
2024-04-15T20:48:37.642Z,100.00
2024-04-15T20:51:04.725Z,100.00
2024-04-15T20:53:31.634Z,100.00
2024-04-15T20:55:58.511Z,100.00
2024-04-15T20:58:25.644Z,100.00
2024-04-15T21:00:52.549Z,100.00
2024-04-15T21:03:19.618Z,100.00
2024-04-15T21:05:46.601Z,100.00
2024-04-15T21:08:13.488Z,100.00
2024-04-15T21:10:41.156Z,100.00
2024-04-15T21:13:08.927Z,100.00
2024-04-15T21:15:36.385Z,100.00
2024-04-15T21:18:04.010Z,100.00
2024-04-15T21:20:31.479Z,100.00
2024-04-15T21:22:58.455Z,100.00
2024-04-15T21:25:25.516Z,100.00
2024-04-15T21:27:56.683Z,100.00
2024-04-15T21:30:23.888Z,100.00
2024-04-15T21:32:53.141Z,100.00
2024-04-15T21:35:22.620Z,100.00
2024-04-15T21:37:49.581Z,100.00
2024-04-15T21:40:16.556Z,100.00
2024-04-15T21:42:43.560Z,100.00
2024-04-15T21:45:10.703Z,100.00
2024-04-15T21:47:37.800Z,100.00
2024-04-15T21:50:04.865Z,100.00
2024-04-15T21:52:32.333Z,100.00
2024-04-15T21:54:59.373Z,100.00
2024-04-15T21:57:26.250Z,100.00
2024-04-15T21:59:53.663Z,100.00
2024-04-15T22:02:20.953Z,100.00
2024-04-15T22:04:58.865Z,100.00
2024-04-15T22:07:28.827Z,100.00
2024-04-15T22:09:56.095Z,100.00
2024-04-15T22:12:23.205Z,100.00
2024-04-15T22:14:50.331Z,100.00
2024-04-15T22:17:17.351Z,100.00
2024-04-15T22:19:44.165Z,100.00
2024-04-15T22:22:11.111Z,100.00
2024-04-15T22:24:37.914Z,100.00
2024-04-15T22:27:04.643Z,100.00
2024-04-15T22:29:31.534Z,100.00
2024-04-15T22:31:58.230Z,100.00
2024-04-15T22:34:25.237Z,100.00
2024-04-15T22:36:55.509Z,100.00
2024-04-15T22:39:24.012Z,100.00
2024-04-15T22:41:50.754Z,100.00
2024-04-15T22:44:17.497Z,100.00
2024-04-15T22:46:44.199Z,100.00
2024-04-15T22:49:11.348Z,100.00
2024-04-15T22:51:38.144Z,100.00
2024-04-15T22:54:05.159Z,100.00
2024-04-15T22:56:32.048Z,100.00
2024-04-15T22:58:59.131Z,100.00
2024-04-15T23:01:26.007Z,100.00
2024-04-15T23:03:52.952Z,100.00
2024-04-15T23:06:20.011Z,100.00
2024-04-15T23:08:46.915Z,100.00
2024-04-15T23:11:13.786Z,100.00
2024-04-15T23:13:40.949Z,100.00
2024-04-15T23:16:07.846Z,100.00
2024-04-15T23:18:35.121Z,100.00
2024-04-15T23:21:01.803Z,100.00
2024-04-15T23:23:28.657Z,100.00
2024-04-15T23:25:55.474Z,100.00
2024-04-15T23:28:22.276Z,100.00
2024-04-15T23:30:59.496Z,100.00
2024-04-15T23:33:26.727Z,100.00
2024-04-15T23:35:54.316Z,100.00
2024-04-15T23:38:22.112Z,100.00
2024-04-15T23:40:49.608Z,100.00
2024-04-15T23:43:16.480Z,100.00
2024-04-15T23:45:56.698Z,100.00
2024-04-15T23:48:23.906Z,100.00
2024-04-15T23:50:50.643Z,100.00
2024-04-15T23:53:17.613Z,100.00
2024-04-15T23:55:44.657Z,100.00
2024-04-15T23:58:11.981Z,100.00
